Latest Coastal Weather Observations for Gannett Cay

IDQ60701

Issued at 8:31 am EST Thursday 29 June 2017 (issued every 10 minutes, with the page automatically refreshed every 10 minutes)

About coastal observations | Map of coastal stations | Coastal observations for QLD | Marine services | Other Formats
Station Details ID: 200831 Name: GANNET CAY Lat: -21.98 Lon: 152.47 Height: 2.3 m
Data from the previous 72 hours. | See also: Recent months for locations in Queensland
Date/Time
EST
Temp
°C
Wind Pressure Rain since
9am
mm
Weather Cloud Vis
km
Sea
Height
m
Swell
Dir  Spd
kts
Gust
kts
hPa Trend Height
m
Period
s
Dir
29/08:30am 23.3 E 18 21 1020.2 - - - - - - - - -
29/08:00am 23.1 E 19 22 1020.2 - - - - - - - - -
29/07:30am 23.1 E 18 21 1020.1 - - - - - - - - -
29/07:29am 23.1 E 18 - 1020.2 - - - - - - - - -
29/07:00am 22.9 E 18 21 1019.9 - - - - - - - - -
29/06:30am 22.7 E 18 21 1019.9 - - - - - - - - -
29/06:29am 22.7 E 18 - 1020.0 - - - - - - - - -
29/06:00am 22.7 E 18 21 1019.9 - - - - - - - - -
29/05:30am 22.6 E 19 22 1019.5 - - - - - - - - -
29/05:29am 22.6 E 19 - 1019.6 - - - - - - - - -
29/05:00am 22.6 E 18 21 1019.4 - - - - - - - - -
29/04:30am 22.5 E 19 21 1019.2 - - - - - - - - -
29/04:29am 22.5 E 19 - 1019.4 - - - - - - - - -
29/04:00am 22.5 E 19 22 1019.4 - - - - - - - - -
29/03:30am 22.5 ESE 20 23 1019.5 - - - - - - - - -
29/03:29am 22.6 ESE 20 - 1019.6 - - - - - - - - -
29/03:00am 22.6 E 19 22 1019.6 - - - - - - - - -
29/02:30am 22.6 E 19 23 1019.7 - - - - - - - - -
29/02:29am 22.6 E 19 - 1019.8 - - - - - - - - -
29/02:00am 22.6 E 20 23 1019.9 - - - - - - - - -
29/01:30am 22.6 E 20 23 1020.1 - - - - - - - - -
29/01:29am 22.6 E 20 - 1020.2 - - - - - - - - -
29/01:00am 22.7 E 19 21 1020.3 - - - - - - - - -
29/12:30am 22.7 E 19 22 1020.7 - - - - - - - - -
29/12:29am 22.7 E 19 - 1020.8 - - - - - - - - -
29/12:00am 22.7 E 20 23 1020.8 - - - - - - - - -
 
Date/Time
EST
Temp
°C
Wind Pressure Rain since
9am
mm
Weather Cloud Vis
km
Sea
Height
m
Swell
Dir  Spd
kts
Gust
kts
hPa Trend Height
m
Period
s
Dir
28/11:30pm 22.8 E 21 25 1020.9 - - - - - - - - -
28/11:29pm 22.7 E 21 - 1021.0 - - - - - - - - -
28/11:00pm 22.8 E 20 23 1021.3 - - - - - - - - -
28/10:30pm 22.7 E 20 24 1021.4 - - - - - - - - -
28/10:29pm 22.8 E 20 - 1021.5 - - - - - - - - -
28/10:00pm 22.8 E 21 23 1021.4 - - - - - - - - -
28/09:30pm 22.9 E 21 25 1021.3 - - - - - - - - -
28/09:29pm 22.8 E 21 - 1021.4 - - - - - - - - -
28/09:00pm 22.9 E 22 25 1021.4 - - - - - - - - -
28/08:30pm 22.9 ESE 21 24 1021.3 - - - - - - - - -
28/08:29pm 22.9 ESE 21 - 1021.4 - - - - - - - - -
28/08:00pm 22.9 ESE 22 25 1021.1 - - - - - - - - -
28/07:30pm 23.0 ESE 22 26 1020.7 - - - - - - - - -
28/07:29pm 22.9 ESE 23 - 1020.8 - - - - - - - - -
28/07:00pm 22.9 ESE 23 25 1020.6 - - - - - - - - -
28/06:30pm 23.0 ESE 22 24 1020.4 - - - - - - - - -
28/06:29pm 23.0 ESE 22 - 1020.5 - - - - - - - - -
28/06:00pm 23.0 ESE 21 24 1020.1 - - - - - - - - -
28/05:30pm 23.1 ESE 19 23 1019.9 - - - - - - - - -
28/05:29pm 23.0 ESE 20 - 1020.0 - - - - - - - - -
28/05:00pm 22.2 ESE 18 22 1019.9 - - - - - - - - -
28/04:30pm 23.0 ESE 19 22 1019.7 - - - - - - - - -
28/04:29pm 22.9 ESE 19 - 1019.8 - - - - - - - - -
28/04:00pm 22.6 ESE 18 21 1019.6 - - - - - - - - -
28/03:30pm 23.4 ESE 17 21 1019.4 - - - - - - - - -
28/03:29pm 23.5 ESE 17 - 1019.5 - - - - - - - - -
28/03:00pm 23.3 E 18 21 1019.2 - - - - - - - - -
28/02:30pm 23.1 E 15 17 1019.2 - - - - - - - - -
28/02:29pm 23.1 E 15 - 1019.3 - - - - - - - - -
28/02:00pm 23.1 E 17 20 1019.2 - - - - - - - - -
28/01:30pm 23.6 E 16 18 1019.4 - - - - - - - - -
28/01:29pm 23.6 E 16 - 1019.5 - - - - - - - - -
28/01:00pm 23.7 E 17 20 1019.7 - - - - - - - - -
28/12:30pm 23.4 E 15 18 1020.0 - - - - - - - - -
28/12:29pm 23.4 E 16 - 1020.1 - - - - - - - - -
28/12:00pm 23.4 E 16 19 1020.2 - - - - - - - - -
28/11:30am 23.4 E 16 21 1020.8 - - - - - - - - -
28/11:29am 23.4 E 16 - 1020.9 - - - - - - - - -
28/11:00am 23.5 E 18 22 1021.1 - - - - - - - - -
28/10:30am 23.5 E 16 18 1021.4 - - - - - - - - -
28/10:29am 23.5 E 16 - 1021.5 - - - - - - - - -
28/10:00am 23.4 E 16 19 1021.5 - - - - - - - - -
28/09:30am 23.4 E 17 20 1021.5 - - - - - - - - -
28/09:29am 23.5 E 17 - 1021.5 - - - - - - - - -
28/09:00am 23.4 E 17 21 1021.5 - - - - - - - - -
28/08:30am 23.5 E 18 21 1021.3 - - - - - - - - -
28/08:29am 23.3 E 18 - 1021.3 - - - - - - - - -
28/08:00am 23.2 E 18 20 1021.1 - - - - - - - - -
28/07:30am 23.1 E 17 20 1020.9 - - - - - - - - -
28/07:29am 23.1 E 17 - 1021.0 - - - - - - - - -
28/07:00am 23.0 E 17 19 1020.6 - - - - - - - - -
28/06:30am 22.9 E 17 19 1020.4 - - - - - - - - -
28/06:29am 22.8 E 17 - 1020.5 - - - - - - - - -
28/06:00am 22.9 E 17 19 1020.3 - - - - - - - - -
28/05:30am 23.0 E 18 20 1020.1 - - - - - - - - -
28/05:29am 22.9 E 18 - 1020.2 - - - - - - - - -
28/05:00am 23.0 E 18 19 1019.9 - - - - - - - - -
28/04:30am 22.9 E 17 20 1019.9 - - - - - - - - -
28/04:29am 22.9 E 17 - 1020.0 - - - - - - - - -
28/04:00am 23.0 E 19 21 1019.9 - - - - - - - - -
28/03:30am 22.9 E 18 21 1020.0 - - - - - - - - -
28/03:29am 23.0 E 18 - 1020.1 - - - - - - - - -
28/03:00am 23.0 ENE 18 20 1020.1 - - - - - - - - -
28/02:30am 23.1 ENE 17 21 1020.1 - - - - - - - - -
28/02:29am 23.0 ENE 17 - 1020.2 - - - - - - - - -
28/02:00am 22.2 E 15 20 1020.3 - - - - - - - - -
28/01:30am 22.8 E 19 21 1020.7 - - - - - - - - -
28/01:29am 22.8 E 19 - 1020.8 - - - - - - - - -
28/01:00am 23.0 E 16 19 1020.8 - - - - - - - - -
28/12:30am 23.1 E 18 20 1021.1 - - - - - - - - -
28/12:29am 23.0 E 18 - 1021.2 - - - - - - - - -
28/12:00am 23.1 E 17 20 1021.2 - - - - - - - - -
 
Date/Time
EST
Temp
°C
Wind Pressure Rain since
9am
mm
Weather Cloud Vis
km
Sea
Height
m
Swell
Dir  Spd
kts
Gust
kts
hPa Trend Height
m
Period
s
Dir
27/11:30pm 23.1 E 18 21 1021.2 - - - - - - - - -
27/11:29pm 23.1 E 18 - 1021.3 - - - - - - - - -
27/11:00pm 23.1 E 19 21 1021.4 - - - - - - - - -
27/10:30pm 23.0 E 18 21 1021.6 - - - - - - - - -
27/10:29pm 23.0 E 18 - 1021.7 - - - - - - - - -
27/10:00pm 23.0 E 19 22 1021.6 - - - - - - - - -
27/09:30pm 23.1 E 19 23 1021.9 - - - - - - - - -
27/09:29pm 23.0 E 20 - 1022.0 - - - - - - - - -
27/09:00pm 23.1 E 20 23 1021.7 - - - - - - - - -
27/08:30pm 23.1 E 21 24 1021.7 - - - - - - - - -
27/08:29pm 23.1 E 20 - 1021.7 - - - - - - - - -
27/08:00pm 23.1 ESE 20 24 1021.5 - - - - - - - - -
27/07:30pm 23.0 E 19 23 1021.4 - - - - - - - - -
27/07:29pm 23.0 E 19 - 1021.4 - - - - - - - - -
27/07:00pm 23.0 ESE 19 22 1021.3 - - - - - - - - -
27/06:30pm 23.0 E 18 21 1021.1 - - - - - - - - -
27/06:29pm 23.0 E 18 - 1021.2 - - - - - - - - -
27/06:00pm 23.0 E 19 22 1020.8 - - - - - - - - -
27/05:30pm 22.9 ESE 19 22 1020.6 - - - - - - - - -
27/05:29pm 22.9 ESE 19 - 1020.7 - - - - - - - - -
27/05:00pm 23.0 ESE 19 23 1020.3 - - - - - - - - -
27/04:30pm 23.1 E 20 22 1020.0 - - - - - - - - -
27/04:29pm 23.2 E 20 - 1020.2 - - - - - - - - -
27/04:00pm 23.2 E 19 22 1019.8 - - - - - - - - -
27/03:30pm 23.3 E 20 23 1019.6 - - - - - - - - -
27/03:29pm 23.3 E 20 - 1019.7 - - - - - - - - -
27/03:00pm 23.2 E 19 22 1019.4 - - - - - - - - -
27/02:30pm 23.4 E 19 21 1019.6 - - - - - - - - -
27/02:29pm 23.3 E 19 - 1019.7 - - - - - - - - -
27/02:00pm 23.2 E 19 22 1019.7 - - - - - - - - -
27/01:30pm 23.4 E 19 22 1020.0 - - - - - - - - -
27/01:29pm 23.3 E 19 - 1020.0 - - - - - - - - -
27/01:00pm 23.3 E 17 20 1020.4 - - - - - - - - -
27/12:30pm 23.3 ESE 18 21 1020.7 - - - - - - - - -
27/12:29pm 23.3 ESE 18 - 1020.8 - - - - - - - - -
27/12:00pm 23.3 ESE 19 21 1021.1 - - - - - - - - -
27/11:30am 23.2 ESE 19 22 1021.4 - - - - - - - - -
27/11:29am 23.2 ESE 19 - 1021.5 - - - - - - - - -
27/11:00am 22.9 ESE 19 22 1021.6 - - - - - - - - -
27/10:30am 23.0 SE 19 21 1021.8 - - - - - - - - -
27/10:29am 23.0 SE 19 - 1021.9 - - - - - - - - -
27/10:00am 23.1 ESE 19 21 1021.9 - - - - - - - - -
27/09:30am 22.9 SE 19 22 1021.7 - - - - - - - - -
27/09:29am 22.9 SE 19 - 1021.8 - - - - - - - - -
27/09:00am 22.9 ESE 18 21 1021.5 - - - - - - - - -
27/08:30am 22.8 SE 18 21 1021.3 - - - - - - - - -
27/08:29am 22.9 SE 18 - 1021.4 - - - - - - - - -
27/08:00am 22.7 ESE 18 21 1021.0 - - - - - - - - -
27/07:30am 22.8 ESE 17 19 1020.7 - - - - - - - - -
27/07:29am 22.7 ESE 18 - 1020.8 - - - - - - - - -
27/07:00am 22.5 ESE 19 21 1020.3 - - - - - - - - -
27/06:30am 22.5 ESE 19 21 1020.0 - - - - - - - - -
27/06:29am 22.4 SE 19 - 1020.1 - - - - - - - - -
27/06:00am 22.5 ESE 19 21 1019.9 - - - - - - - - -
27/05:30am 22.5 ESE 17 20 1019.9 - - - - - - - - -
27/05:29am 22.6 ESE 17 - 1020.0 - - - - - - - - -
27/05:00am 22.5 SE 17 20 1019.7 - - - - - - - - -
27/04:30am 22.6 ESE 18 20 1019.5 - - - - - - - - -
27/04:29am 22.6 ESE 18 - 1019.6 - - - - - - - - -
27/04:00am 22.6 ESE 18 20 1019.7 - - - - - - - - -
27/03:30am 22.5 ESE 17 19 1019.7 - - - - - - - - -
27/03:29am 22.6 ESE 17 - 1019.8 - - - - - - - - -
27/03:00am 22.6 ESE 18 20 1019.7 - - - - - - - - -
27/02:30am 22.6 ESE 17 20 1019.8 - - - - - - - - -
27/02:29am 22.6 ESE 17 - 1019.9 - - - - - - - - -
27/02:00am 22.7 ESE 17 19 1020.0 - - - - - - - - -
27/01:30am 22.7 ESE 17 19 1020.0 - - - - - - - - -
27/01:29am 22.7 ESE 17 - 1020.1 - - - - - - - - -
27/01:00am 22.7 ESE 15 18 1020.1 - - - - - - - - -
27/12:30am 22.7 SE 17 19 1020.4 - - - - - - - - -
27/12:29am 22.8 SE 17 - 1020.5 - - - - - - - - -
27/12:00am 22.7 ESE 16 19 1020.3 - - - - - - - - -
 
Date/Time
EST
Temp
°C
Wind Pressure Rain since
9am
mm
Weather Cloud Vis
km
Sea
Height
m
Swell
Dir  Spd
kts
Gust
kts
hPa Trend Height
m
Period
s
Dir
26/11:30pm 22.9 ESE 16 18 1020.4 - - - - - - - - -
26/11:29pm 22.9 ESE 16 - 1020.6 - - - - - - - - -
26/11:00pm 23.0 SE 16 19 1020.5 - - - - - - - - -
26/10:30pm 23.0 SE 17 19 1020.7 - - - - - - - - -
26/10:29pm 23.0 SE 17 - 1020.8 - - - - - - - - -
26/10:00pm 23.0 SE 16 19 1020.5 - - - - - - - - -
26/09:30pm 22.8 SE 16 18 1020.4 - - - - - - - - -
26/09:29pm 22.9 SE 16 - 1020.5 - - - - - - - - -
26/09:00pm 22.7 SE 13 16 1020.4 - - - - - - - - -
26/08:30pm 22.6 SSE 11 13 1020.3 - - - - - - - - -
26/08:29pm 22.5 SSE 11 - 1020.4 - - - - - - - - -
26/08:00pm 22.5 SE 11 13 1020.2 - - - - - - - - -
26/07:30pm 22.4 SE 10 11 1019.9 - - - - - - - - -
26/07:29pm 22.5 SE 10 - 1020.0 - - - - - - - - -
26/07:00pm 22.5 SE 10 12 1019.6 - - - - - - - - -
26/06:30pm 22.5 SE 11 12 1019.3 - - - - - - - - -
26/06:29pm 22.5 SE 11 - 1019.4 - - - - - - - - -
26/06:00pm 22.6 SE 10 13 1019.1 - - - - - - - - -
26/05:30pm 22.6 SE 10 12 1019.0 - - - - - - - - -
26/05:29pm 22.6 SE 10 - 1019.1 - - - - - - - - -
26/05:00pm 22.9 SE 10 12 1018.9 - - - - - - - - -
26/04:30pm 23.2 SE 9 11 1018.8 - - - - - - - - -
26/04:29pm 23.0 SE 9 - 1018.9 - - - - - - - - -
26/04:00pm 23.3 SE 10 11 1018.4 - - - - - - - - -
26/03:30pm 23.4 SE 10 11 1018.3 - - - - - - - - -
26/03:29pm 23.4 ESE 10 - 1018.4 - - - - - - - - -
26/03:00pm 23.3 SE 10 13 1018.2 - - - - - - - - -
26/02:30pm 23.5 SE 10 12 1018.2 - - - - - - - - -
26/02:29pm 23.5 SE 10 - 1018.3 - - - - - - - - -
26/02:00pm 23.6 SE 9 11 1018.4 - - - - - - - - -
26/01:30pm 23.7 ESE 9 11 1018.6 - - - - - - - - -
26/01:29pm 23.7 ESE 9 - 1018.7 - - - - - - - - -
26/01:00pm 23.7 E 9 11 1018.8 - - - - - - - - -
26/12:30pm 23.2 ESE 11 12 1018.9 - - - - - - - - -
26/12:29pm 23.6 ESE 11 - 1019.0 - - - - - - - - -
26/12:00pm 23.3 E 10 11 1019.1 - - - - - - - - -
26/11:30am 23.2 E 10 12 1019.4 - - - - - - - - -
26/11:29am 23.3 E 10 - 1019.5 - - - - - - - - -
26/11:00am 23.1 E 11 13 1019.7 - - - - - - - - -
26/10:30am 23.4 ESE 10 12 1019.7 - - - - - - - - -
26/10:29am 23.5 ESE 10 - 1019.8 - - - - - - - - -
26/10:00am 23.4 E 8 10 1020.0 - - - - - - - - -
26/09:30am 23.2 ESE 10 13 1020.1 - - - - - - - - -
26/09:29am 23.2 ESE 10 - 1020.2 - - - - - - - - -
26/09:00am 23.1 ESE 10 12 1020.0 - - - - - - - - -

Other Formats:

Comma delimited format used in spreadsheet applications
http://www.bom.gov.au/fwo/IDQ60701/IDQ60701.94379.axf

JavaScript Object Notation format (JSON) in row-major order
http://www.bom.gov.au/fwo/IDQ60701/IDQ60701.94379.json